Terminal Aerodrome Forecast
Issued by NWS

Home | Current Version | Previous Version | Text Only | Print | Product List | Glossary On
Versions: 1 2 3 4 5 6 7 8 9 10 11 12 13 14 15 16 17
000
FTUS43 KJKL 280500 RRA
TAFSME
TAF
KSME 280542Z 2806/2906 26003KT 4SM -RA SCT010 OVC020
     FM280700 28004KT 3SM -RA BR SCT007 OVC010
     FM281200 30003KT 2SM -RA BR BKN007 OVC015
     FM281500 34004KT 2SM -RA BR OVC007=

USA.gov is the U.S. government's official web portal to all federal, state and local government web resources and services.